Time;durP1;ratioP1;P1;durP2;ratioP2;P2;SDS_P1;SDS_P2;PMS_P1;PMS_P2;Temp;Humidity;BMP_temperature;BMP_pressure;BME280_temperature;BME280_humidity;BME280_pressure;Samples;Min_cycle;Max_cycle;Signal;HPM_P1;HPM_P2
2022/12/02 00:01:51;;;;;;;31.15;17.33;;;3.80;87.70;;;;;;5055620;28;20079;-44
2022/12/02 00:04:25;;;;;;;34.78;18.13;;;3.80;87.80;;;;;;5039291;28;20025;-47
2022/12/02 00:06:52;;;;;;;39.13;18.80;;;3.80;87.80;;;;;;5036682;28;20033;-47
2022/12/02 00:09:31;;;;;;;38.70;19.80;;;3.80;87.80;;;;;;5037022;28;20033;-47
2022/12/02 00:12:10;;;;;;;32.08;18.92;;;3.90;87.80;;;;;;5054836;28;20084;-46
2022/12/02 00:14:38;;;;;;;39.15;19.55;;;3.90;88.00;;;;;;5052100;28;20111;-46
2022/12/02 00:17:05;;;;;;;37.97;21.25;;;3.90;87.90;;;;;;5038545;28;20025;-46
2022/12/02 00:19:32;;;;;;;39.00;22.58;;;3.90;87.80;;;;;;5052843;28;20028;-46
2022/12/02 00:21:59;;;;;;;40.08;21.42;;;3.90;87.90;;;;;;5035843;28;20083;-50
2022/12/02 00:24:27;;;;;;;40.10;21.30;;;3.90;88.00;;;;;;5018224;28;20029;-46
2022/12/02 00:26:53;;;;;;;49.45;26.83;;;3.90;88.00;;;;;;5036158;28;20364;-46
2022/12/02 00:29:19;;;;;;;45.42;25.52;;;3.90;88.00;;;;;;5039106;28;20037;-46
2022/12/02 00:31:46;;;;;;;45.60;25.02;;;3.90;88.10;;;;;;5048690;28;20470;-46
2022/12/02 00:34:12;;;;;;;45.25;24.35;;;3.90;88.10;;;;;;5038114;28;20354;-45
2022/12/02 00:36:39;;;;;;;48.05;24.10;;;3.90;88.10;;;;;;5055640;28;20029;-48
2022/12/02 00:39:06;;;;;;;51.88;24.17;;;3.90;88.20;;;;;;5036746;28;20110;-46
2022/12/02 00:41:33;;;;;;;46.65;24.42;;;3.90;88.00;;;;;;5033108;28;20076;-49
2022/12/02 00:46:44;;;;;;;42.10;23.92;;;3.90;88.20;;;;;;5054920;28;20497;-45
2022/12/02 00:49:15;;;;;;;48.67;26.80;;;3.90;88.40;;;;;;5053402;28;20458;-47
2022/12/02 00:51:45;;;;;;;49.58;25.05;;;3.90;88.40;;;;;;5054411;28;20114;-45
2022/12/02 00:54:13;;;;;;;50.88;25.52;;;3.90;88.10;;;;;;5044392;28;20037;-45
2022/12/02 00:56:40;;;;;;;48.92;24.75;;;3.90;88.40;;;;;;5035019;28;20048;-48
2022/12/02 00:59:06;;;;;;;46.00;25.95;;;3.90;88.40;;;;;;5034054;28;20043;-46
2022/12/02 01:01:34;;;;;;;48.22;25.17;;;3.90;88.50;;;;;;5037460;28;20025;-46
2022/12/02 01:04:01;;;;;;;46.72;24.00;;;3.90;88.30;;;;;;5037759;28;20021;-47
2022/12/02 01:06:28;;;;;;;49.38;26.98;;;3.90;88.50;;;;;;5047207;28;20044;-45
2022/12/02 01:08:54;;;;;;;51.67;26.45;;;3.80;88.50;;;;;;5034568;28;20021;-45
2022/12/02 01:11:21;;;;;;;50.40;24.90;;;3.80;88.40;;;;;;5036816;28;20044;-46
2022/12/02 01:13:48;;;;;;;51.28;26.08;;;3.80;88.40;;;;;;5017075;28;20029;-48
2022/12/02 01:16:15;;;;;;;50.53;26.55;;;3.70;88.40;;;;;;5036625;28;20032;-47
2022/12/02 01:18:41;;;;;;;56.15;26.83;;;3.80;88.40;;;;;;5036565;28;20370;-45
2022/12/02 01:21:08;;;;;;;57.08;27.65;;;3.80;88.40;;;;;;5047915;28;20033;-44
2022/12/02 01:23:35;;;;;;;60.60;26.58;;;3.80;88.50;;;;;;5054488;28;20180;-45
2022/12/02 01:26:02;;;;;;;52.42;25.63;;;3.80;88.40;;;;;;5051445;28;20021;-45
2022/12/02 01:28:29;;;;;;;49.22;26.00;;;3.70;88.20;;;;;;5036951;28;20039;-48
2022/12/02 01:30:55;;;;;;;56.28;26.25;;;3.80;88.40;;;;;;5053971;28;20358;-46
2022/12/02 01:33:22;;;;;;;53.15;27.25;;;3.70;88.20;;;;;;5033120;28;20030;-47
2022/12/02 01:35:49;;;;;;;52.80;25.65;;;3.70;88.30;;;;;;5044336;28;20053;-45
2022/12/02 01:38:17;;;;;;;58.03;26.20;;;3.70;88.10;;;;;;5053490;28;20094;-47
2022/12/02 01:40:47;;;;;;;49.58;24.67;;;3.70;88.30;;;;;;5046928;28;20064;-44
2022/12/02 01:43:16;;;;;;;50.20;23.83;;;3.70;88.30;;;;;;5020287;28;20047;-45
2022/12/02 01:45:43;;;;;;;53.85;27.92;;;3.70;88.50;;;;;;5035787;28;20500;-45
2022/12/02 01:48:11;;;;;;;52.03;27.73;;;3.70;88.50;;;;;;5046245;28;20048;-45
2022/12/02 01:50:38;;;;;;;59.83;27.73;;;3.70;88.70;;;;;;5038092;28;20037;-48
2022/12/02 01:53:03;;;;;;;54.45;27.67;;;3.70;88.60;;;;;;5053993;28;20468;-46
2022/12/02 01:55:30;;;;;;;51.92;26.38;;;3.70;88.70;;;;;;5051861;28;20059;-47
2022/12/02 01:57:58;;;;;;;55.55;28.23;;;3.70;88.60;;;;;;5048803;28;20037;-44
2022/12/02 02:00:26;;;;;;;56.22;27.70;;;3.80;88.60;;;;;;5033910;28;20044;-48
2022/12/02 02:02:53;;;;;;;57.75;28.63;;;3.70;88.30;;;;;;5033958;28;20029;-46
2022/12/02 02:05:26;;;;;;;55.53;26.73;;;3.70;88.40;;;;;;5038568;28;20387;-44
2022/12/02 02:08:02;;;;;;;56.83;29.45;;;3.70;88.60;;;;;;5033733;28;20025;-45
2022/12/02 02:10:29;;;;;;;58.42;27.65;;;3.70;88.50;;;;;;5033236;28;20094;-48
2022/12/02 02:12:55;;;;;;;57.38;28.55;;;3.70;88.60;;;;;;5045209;28;20020;-46
2022/12/02 02:15:22;;;;;;;58.35;26.27;;;3.70;88.50;;;;;;5046200;28;20029;-45
2022/12/02 02:17:50;;;;;;;51.30;26.40;;;3.70;88.60;;;;;;5033334;28;20075;-45
2022/12/02 02:20:21;;;;;;;54.20;28.98;;;3.70;88.60;;;;;;5039818;28;20393;-44
2022/12/02 02:23:06;;;;;;;57.55;28.00;;;3.70;88.50;;;;;;5051801;28;20040;-45
2022/12/02 02:25:36;;;;;;;55.20;26.85;;;3.70;88.70;;;;;;5044743;28;20419;-46
2022/12/02 02:28:06;;;;;;;59.13;28.85;;;3.60;88.60;;;;;;5033375;28;20390;-49
2022/12/02 02:30:34;;;;;;;60.25;29.73;;;3.60;88.40;;;;;;5033062;28;20030;-49
2022/12/02 02:33:04;;;;;;;60.53;29.23;;;3.60;88.20;;;;;;5035062;28;20039;-45
2022/12/02 02:35:34;;;;;;;51.53;26.52;;;3.60;88.40;;;;;;5049441;28;20355;-47
2022/12/02 02:38:00;;;;;;;54.80;27.65;;;3.50;88.30;;;;;;5036090;28;20134;-45
2022/12/02 02:40:28;;;;;;;59.45;27.60;;;3.50;88.40;;;;;;5052855;28;20162;-46
2022/12/02 02:43:02;;;;;;;54.92;27.58;;;3.60;88.60;;;;;;5034515;28;20446;-48
2022/12/02 02:45:34;;;;;;;56.50;26.10;;;3.60;88.50;;;;;;5035481;28;20027;-48
2022/12/02 02:48:02;;;;;;;58.20;30.42;;;3.60;88.40;;;;;;5039565;28;20421;-46
2022/12/02 02:50:30;;;;;;;56.03;27.20;;;3.50;88.20;;;;;;5037167;28;20025;-44
2022/12/02 02:52:57;;;;;;;52.70;26.90;;;3.60;88.30;;;;;;5050820;28;20060;-45
2022/12/02 02:55:26;;;;;;;61.13;29.08;;;3.60;88.30;;;;;;5022499;28;20048;-48
2022/12/02 02:57:52;;;;;;;55.63;28.83;;;3.50;88.30;;;;;;5032209;28;20026;-45
2022/12/02 03:00:21;;;;;;;59.40;27.15;;;3.50;88.40;;;;;;5015019;28;20054;-46
2022/12/02 03:02:54;;;;;;;56.58;27.25;;;3.50;88.40;;;;;;5013245;28;20030;-47
2022/12/02 03:05:21;;;;;;;59.22;28.15;;;3.40;88.00;;;;;;5023827;28;20117;-49
2022/12/02 03:07:48;;;;;;;54.50;27.80;;;3.40;87.90;;;;;;5015943;28;20045;-45
2022/12/02 03:10:15;;;;;;;52.00;27.45;;;3.40;87.60;;;;;;5011084;28;20038;-43
2022/12/02 03:12:42;;;;;;;53.65;27.52;;;3.30;87.50;;;;;;5011244;28;20057;-48
2022/12/02 03:15:10;;;;;;;50.38;25.48;;;3.30;87.40;;;;;;5020927;28;20084;-49
2022/12/02 03:17:37;;;;;;;51.22;26.08;;;3.30;87.30;;;;;;5011198;28;20440;-46
2022/12/02 03:20:06;;;;;;;57.63;26.58;;;3.30;87.40;;;;;;5026532;28;20040;-45
2022/12/02 03:22:32;;;;;;;46.97;25.58;;;3.30;87.60;;;;;;5031845;28;20362;-43
2022/12/02 03:24:58;;;;;;;50.33;26.15;;;3.30;87.60;;;;;;5023660;28;20018;-46
2022/12/02 03:27:30;;;;;;;50.40;25.17;;;3.20;87.40;;;;;;5012207;28;20432;-48
2022/12/02 03:29:57;;;;;;;55.15;27.23;;;3.30;87.40;;;;;;5011598;28;20594;-45
2022/12/02 03:32:27;;;;;;;50.45;23.63;;;3.30;87.40;;;;;;4995478;28;20030;-47
2022/12/02 03:34:57;;;;;;;50.63;27.35;;;3.30;87.00;;;;;;5019523;28;20443;-44
2022/12/02 03:37:24;;;;;;;;;;;3.40;87.40;;;;;;5031398;28;20039;-46
2022/12/02 03:39:54;;;;;;;55.42;24.88;;;3.40;87.50;;;;;;5029508;28;20020;-48
2022/12/02 03:42:21;;;;;;;54.38;25.25;;;3.30;87.30;;;;;;5011245;28;20329;-46
2022/12/02 03:44:49;;;;;;;53.67;26.67;;;3.20;87.40;;;;;;5019851;28;20104;-44
2022/12/02 03:47:15;;;;;;;52.50;27.33;;;3.20;87.30;;;;;;4995569;28;20097;-44
2022/12/02 03:49:43;;;;;;;64.55;30.08;;;3.20;87.30;;;;;;5021565;28;20117;-47
2022/12/02 03:52:11;;;;;;;52.63;26.27;;;3.20;87.30;;;;;;5013816;28;20065;-48
2022/12/02 03:54:38;;;;;;;55.83;25.33;;;3.10;87.40;;;;;;5017390;28;20411;-48
2022/12/02 03:57:08;;;;;;;54.75;27.15;;;3.10;87.70;;;;;;5037690;28;20346;-49
2022/12/02 03:59:33;;;;;;;63.17;29.98;;;3.10;87.80;;;;;;5051945;28;20033;-45
2022/12/02 04:02:00;;;;;;;56.38;27.25;;;3.10;87.90;;;;;;5051052;28;20418;-48
2022/12/02 04:04:26;;;;;;;59.10;27.85;;;3.20;88.10;;;;;;5037763;28;20060;-45
2022/12/02 04:06:53;;;;;;;59.72;28.33;;;3.10;88.00;;;;;;5052306;28;20061;-44
2022/12/02 04:09:19;;;;;;;58.10;27.98;;;3.10;88.20;;;;;;5051381;28;20063;-47
2022/12/02 04:11:45;;;;;;;54.80;26.27;;;3.10;88.10;;;;;;5037092;28;20436;-46
2022/12/02 04:14:12;;;;;;;52.67;26.45;;;3.10;87.90;;;;;;5051009;28;20112;-49
2022/12/02 04:16:39;;;;;;;51.22;24.60;;;3.10;87.90;;;;;;5051017;28;20033;-46
2022/12/02 04:19:06;;;;;;;56.20;28.15;;;3.10;88.10;;;;;;5048148;28;20025;-48
2022/12/02 04:21:32;;;;;;;49.78;26.20;;;3.10;88.10;;;;;;5051652;28;20047;-46
2022/12/02 04:23:59;;;;;;;58.35;30.83;;;3.00;87.90;;;;;;5037789;28;20020;-46
2022/12/02 04:26:26;;;;;;;58.00;27.75;;;3.00;87.80;;;;;;5042830;28;20064;-44
2022/12/02 04:28:53;;;;;;;51.28;26.13;;;2.90;87.70;;;;;;5035753;28;20030;-45
2022/12/02 04:31:19;;;;;;;51.83;27.30;;;2.90;87.60;;;;;;5035645;28;20111;-46
2022/12/02 04:33:46;;;;;;;57.85;28.55;;;2.90;87.60;;;;;;5037034;28;20025;-45
2022/12/02 04:36:13;;;;;;;63.30;26.92;;;2.90;87.70;;;;;;5050764;28;20033;-45
2022/12/02 04:38:40;;;;;;;52.28;27.73;;;2.90;87.70;;;;;;5055038;28;20027;-43
2022/12/02 04:41:07;;;;;;;60.78;30.45;;;2.90;87.90;;;;;;5054890;28;20603;-49
2022/12/02 04:43:33;;;;;;;60.05;29.50;;;2.90;87.70;;;;;;5054882;28;20727;-49
2022/12/02 04:46:00;;;;;;;65.03;30.33;;;2.80;87.60;;;;;;5051654;28;20032;-44
2022/12/02 04:48:27;;;;;;;69.47;29.88;;;2.70;87.80;;;;;;5037368;28;20021;-45
2022/12/02 04:50:54;;;;;;;57.28;27.60;;;2.70;87.90;;;;;;5039154;28;20056;-47
2022/12/02 04:53:20;;;;;;;54.67;26.52;;;2.70;87.90;;;;;;5052183;28;20029;-47
2022/12/02 04:55:46;;;;;;;59.22;29.20;;;2.70;87.80;;;;;;5047726;28;20037;-48
2022/12/02 04:58:13;;;;;;;60.17;28.17;;;2.70;87.70;;;;;;5054399;28;20423;-44
2022/12/02 05:00:39;;;;;;;56.17;25.85;;;2.70;87.70;;;;;;5036282;28;20041;-46
2022/12/02 05:03:05;;;;;;;64.13;27.42;;;2.70;87.80;;;;;;5054850;28;20053;-48
2022/12/02 05:05:32;;;;;;;64.68;32.50;;;2.60;87.70;;;;;;5051897;28;20053;-48
2022/12/02 05:07:58;;;;;;;52.58;25.65;;;2.60;88.10;;;;;;5054027;28;20021;-44
2022/12/02 05:10:26;;;;;;;60.72;26.60;;;2.60;87.90;;;;;;5034041;28;20040;-45
2022/12/02 05:12:53;;;;;;;55.28;28.10;;;2.60;87.60;;;;;;5053326;28;20013;-44
2022/12/02 05:15:20;;;;;;;61.53;27.10;;;2.50;87.40;;;;;;5036679;28;20029;-44
2022/12/02 05:17:46;;;;;;;54.83;26.48;;;2.50;87.40;;;;;;5050256;28;20091;-46
2022/12/02 05:20:13;;;;;;;50.92;28.10;;;2.60;87.20;;;;;;5029757;28;20037;-45
2022/12/02 05:22:40;;;;;;;53.13;26.85;;;2.50;87.00;;;;;;5054625;28;20075;-44
2022/12/02 05:25:08;;;;;;;53.90;26.27;;;2.50;86.90;;;;;;5040014;28;20094;-44
2022/12/02 05:27:37;;;;;;;47.17;24.15;;;2.50;87.20;;;;;;5033739;28;20103;-44
2022/12/02 05:30:06;;;;;;;45.00;24.10;;;2.50;87.20;;;;;;5044191;28;20033;-49
2022/12/02 05:32:33;;;;;;;44.00;24.02;;;2.40;86.60;;;;;;5035895;28;20060;-44
2022/12/02 05:35:00;;;;;;;48.35;25.30;;;2.50;86.70;;;;;;5036412;28;20032;-45
2022/12/02 05:37:26;;;;;;;41.55;21.58;;;2.50;87.00;;;;;;5054506;28;20431;-47
2022/12/02 05:39:53;;;;;;;45.42;22.42;;;2.50;86.10;;;;;;5034551;28;20034;-45
2022/12/02 05:42:20;;;;;;;42.28;22.20;;;2.40;85.90;;;;;;5050483;28;20024;-50
2022/12/02 05:44:50;;;;;;;43.17;23.15;;;2.30;86.10;;;;;;5053891;28;20017;-46
2022/12/02 05:47:21;;;;;;;39.67;20.98;;;2.30;86.20;;;;;;5052122;28;20031;-46
2022/12/02 05:49:48;;;;;;;39.65;22.00;;;2.30;86.50;;;;;;5049924;28;20032;-49
2022/12/02 05:52:32;;;;;;;46.80;23.67;;;2.20;87.00;;;;;;5035593;28;20032;-44
2022/12/02 05:55:06;;;;;;;43.42;23.50;;;2.10;87.30;;;;;;5034309;28;20045;-47
2022/12/02 05:57:33;;;;;;;46.72;23.77;;;2.10;87.80;;;;;;5034051;28;20029;-43
2022/12/02 06:00:17;;;;;;;37.83;19.95;;;2.00;87.80;;;;;;5038221;28;20029;-43
2022/12/02 06:02:59;;;;;;;39.72;20.23;;;1.90;88.00;;;;;;5040607;28;20032;-44
2022/12/02 06:05:29;;;;;;;37.60;18.98;;;1.90;88.50;;;;;;5043464;28;20059;-46
2022/12/02 06:08:00;;;;;;;37.10;19.55;;;1.80;88.80;;;;;;5052040;28;20031;-44
2022/12/02 06:10:27;;;;;;;35.92;20.33;;;1.70;89.00;;;;;;5031945;28;20033;-44
2022/12/02 06:12:58;;;;;;;37.53;20.98;;;1.60;89.50;;;;;;5033676;28;20021;-44
2022/12/02 06:15:34;;;;;;;37.10;18.88;;;1.60;89.90;;;;;;5033653;28;20567;-45
2022/12/02 06:18:00;;;;;;;36.35;19.90;;;1.50;90.00;;;;;;5033617;28;20029;-48
2022/12/02 06:20:31;;;;;;;36.47;19.45;;;1.50;90.30;;;;;;5052288;28;20218;-47
2022/12/02 06:23:02;;;;;;;39.92;20.73;;;1.40;90.50;;;;;;5052052;28;20017;-53
2022/12/02 06:25:31;;;;;;;49.45;23.55;;;1.40;90.80;;;;;;5050325;28;20065;-48
2022/12/02 06:28:22;;;;;;;46.63;22.80;;;1.40;90.90;;;;;;5034073;28;20022;-55
2022/12/02 06:30:49;;;;;;;44.58;22.00;;;1.40;90.90;;;;;;5053039;28;20021;-56
2022/12/02 06:33:24;;;;;;;49.50;24.33;;;1.40;91.10;;;;;;5033096;28;20029;-57
2022/12/02 06:35:53;;;;;;;48.67;23.10;;;1.40;91.30;;;;;;5050851;28;20044;-56
2022/12/02 06:38:34;;;;;;;46.78;25.42;;;1.40;91.40;;;;;;5052603;28;20120;-59
2022/12/02 06:41:16;;;;;;;46.90;23.92;;;1.40;91.50;;;;;;5032494;28;20043;-58
2022/12/02 06:45:03;;;;;;;50.15;25.05;;;1.40;91.50;;;;;;5049889;28;20096;-57
2022/12/02 06:46:33;;;;;;;50.25;25.17;;;1.40;91.80;;;;;;5029391;28;20037;-53
2022/12/02 06:49:25;;;;;;;47.95;23.30;;;1.40;91.80;;;;;;5051746;28;20033;-56
2022/12/02 06:52:05;;;;;;;44.00;23.73;;;1.50;91.90;;;;;;5051371;28;20029;-55
2022/12/02 06:54:31;;;;;;;43.95;24.33;;;1.40;91.90;;;;;;5033816;28;20056;-50
2022/12/02 06:57:00;;;;;;;44.58;26.75;;;1.50;92.00;;;;;;5049292;28;20028;-55
2022/12/02 06:59:27;;;;;;;54.15;29.30;;;1.50;92.10;;;;;;5038628;28;20079;-55
2022/12/02 07:02:03;;;;;;;52.67;27.55;;;1.50;91.90;;;;;;5037924;28;20028;-55
2022/12/02 07:04:51;;;;;;;47.40;25.05;;;1.60;92.10;;;;;;5048753;28;20013;-53
2022/12/02 07:07:22;;;;;;;49.58;26.92;;;1.60;91.80;;;;;;5050562;28;20055;-55
2022/12/02 07:10:03;;;;;;;49.47;26.60;;;1.60;91.70;;;;;;5038640;28;20033;-52
2022/12/02 07:12:48;;;;;;;47.78;25.60;;;1.60;91.60;;;;;;5045551;28;20052;-55
2022/12/02 07:15:30;;;;;;;55.25;28.95;;;1.50;91.50;;;;;;5052167;28;20028;-55
2022/12/02 07:18:11;;;;;;;51.00;26.90;;;1.50;91.60;;;;;;5047008;28;20035;-56
2022/12/02 07:20:38;;;;;;;47.83;26.63;;;1.60;91.70;;;;;;5034770;28;20029;-55
2022/12/02 07:23:23;;;;;;;52.70;27.25;;;1.60;91.70;;;;;;5018163;28;20039;-55
2022/12/02 07:25:59;;;;;;;50.10;27.33;;;1.60;91.90;;;;;;5047185;28;20021;-52
2022/12/02 07:28:44;;;;;;;45.67;26.65;;;1.50;91.80;;;;;;5050525;28;20027;-56
2022/12/02 07:31:20;;;;;;;44.28;24.42;;;1.50;91.80;;;;;;5033961;28;20025;-55
2022/12/02 07:33:51;;;;;;;47.05;25.50;;;1.60;92.00;;;;;;5029720;28;20025;-56
2022/12/02 07:36:16;;;;;;;49.22;25.77;;;1.50;92.00;;;;;;5042202;28;20420;-56
2022/12/02 07:38:44;;;;;;;48.50;26.50;;;1.60;92.10;;;;;;5049425;28;20119;-58
2022/12/02 07:41:12;;;;;;;43.60;25.75;;;1.60;92.10;;;;;;5044417;28;20022;-55
2022/12/02 07:43:39;;;;;;;47.70;26.73;;;1.70;92.20;;;;;;5035362;28;20033;-59
2022/12/02 07:46:07;;;;;;;45.33;27.13;;;1.70;92.20;;;;;;5046641;28;20035;-60
2022/12/02 07:48:34;;;;;;;50.28;28.70;;;1.70;92.10;;;;;;5030930;28;20148;-59
2022/12/02 07:51:01;;;;;;;46.42;26.85;;;1.70;92.20;;;;;;5047213;28;20028;-59
2022/12/02 07:53:26;;;;;;;49.17;28.38;;;1.70;92.20;;;;;;5033660;28;20063;-58
2022/12/02 07:55:52;;;;;;;46.13;27.17;;;1.80;92.30;;;;;;5045741;28;20068;-59
2022/12/02 07:58:18;;;;;;;40.95;24.27;;;1.80;92.20;;;;;;5054746;28;20072;-57
2022/12/02 08:00:45;;;;;;;45.95;25.05;;;1.70;92.00;;;;;;5034920;28;20047;-57
2022/12/02 08:03:12;;;;;;;49.08;27.05;;;1.70;92.10;;;;;;5037493;28;20328;-58
2022/12/02 08:05:39;;;;;;;44.15;25.27;;;1.70;92.00;;;;;;5050086;28;20025;-58
2022/12/02 08:08:06;;;;;;;41.83;26.10;;;1.70;92.20;;;;;;5052596;28;20024;-60
2022/12/02 08:10:33;;;;;;;46.00;27.60;;;1.70;92.30;;;;;;5051915;28;20021;-60
2022/12/02 08:13:00;;;;;;;44.97;25.20;;;1.80;92.20;;;;;;5051474;28;20056;-60
2022/12/02 08:15:27;;;;;;;49.63;27.00;;;1.80;92.20;;;;;;5049941;28;20068;-59
2022/12/02 08:17:55;;;;;;;41.97;24.50;;;1.90;92.30;;;;;;5054904;28;20039;-58
2022/12/02 08:20:27;;;;;;;43.08;25.23;;;1.90;92.30;;;;;;5039631;28;20033;-57
2022/12/02 08:22:56;;;;;;;41.40;24.70;;;1.80;92.00;;;;;;5036135;28;20039;-58
2022/12/02 08:25:23;;;;;;;34.83;24.08;;;1.80;92.10;;;;;;5035869;28;20027;-56
2022/12/02 08:27:50;;;;;;;44.53;24.98;;;1.90;92.20;;;;;;5054991;28;20055;-51
2022/12/02 08:30:18;;;;;;;41.63;25.10;;;1.90;92.30;;;;;;5054940;28;20090;-52
2022/12/02 08:32:45;;;;;;;41.70;24.17;;;2.00;92.30;;;;;;5036909;28;20032;-51
2022/12/02 08:35:12;;;;;;;45.28;26.02;;;2.00;92.30;;;;;;5039109;28;20024;-52
2022/12/02 08:37:39;;;;;;;39.58;24.08;;;2.10;92.30;;;;;;5045166;28;20029;-50
2022/12/02 08:40:06;;;;;;;41.65;23.55;;;2.10;92.00;;;;;;5055304;28;20440;-53
2022/12/02 08:42:33;;;;;;;36.83;23.63;;;2.10;92.00;;;;;;5040544;28;20040;-53
2022/12/02 08:45:00;;;;;;;44.17;25.27;;;2.10;92.00;;;;;;5055082;28;20315;-50
2022/12/02 08:47:27;;;;;;;41.90;24.65;;;2.20;91.90;;;;;;5054729;28;20025;-50
2022/12/02 08:49:53;;;;;;;37.22;23.63;;;2.20;91.80;;;;;;5043536;28;20115;-51
2022/12/02 08:52:18;;;;;;;43.60;26.27;;;2.10;91.80;;;;;;5053462;28;20113;-53
2022/12/02 08:54:48;;;;;;;45.72;25.42;;;2.10;91.80;;;;;;5052897;28;20055;-53
2022/12/02 08:57:15;;;;;;;;;;;2.10;91.90;;;;;;5054547;28;20107;-48
2022/12/02 08:59:41;;;;;;;40.40;22.73;;;2.10;91.80;;;;;;5041773;28;19932;-48
2022/12/02 09:02:09;;;;;;;37.72;22.40;;;2.10;91.80;;;;;;5035102;28;20518;-53
2022/12/02 09:04:39;;;;;;;40.47;24.42;;;2.20;91.80;;;;;;5036729;28;20033;-52
2022/12/02 09:07:10;;;;;;;39.95;21.80;;;2.20;91.80;;;;;;5049442;28;20025;-54
2022/12/02 09:09:36;;;;;;;41.33;21.63;;;2.20;91.80;;;;;;5036614;28;20115;-55
2022/12/02 09:12:03;;;;;;;37.67;21.83;;;2.10;91.70;;;;;;5052395;28;20037;-54
2022/12/02 09:14:29;;;;;;;41.70;22.58;;;2.20;91.60;;;;;;5035032;28;20430;-53
2022/12/02 09:16:57;;;;;;;36.40;23.05;;;2.20;91.70;;;;;;5036072;28;20021;-52
2022/12/02 09:19:25;;;;;;;36.92;22.50;;;2.20;91.60;;;;;;5053877;28;20039;-52
2022/12/02 09:21:53;;;;;;;31.87;19.87;;;2.10;91.60;;;;;;5039702;28;20025;-55
2022/12/02 09:24:21;;;;;;;35.05;19.58;;;2.10;91.50;;;;;;5049785;28;20280;-51
2022/12/02 09:26:48;;;;;;;33.05;19.85;;;2.10;91.50;;;;;;5034314;28;20036;-53
2022/12/02 09:29:15;;;;;;;33.47;19.58;;;2.20;91.50;;;;;;5050852;28;20454;-52
2022/12/02 09:31:44;;;;;;;33.38;19.92;;;2.20;91.50;;;;;;5032008;28;20033;-54
2022/12/02 09:34:11;;;;;;;36.10;22.02;;;2.20;91.50;;;;;;5051091;28;20053;-53
2022/12/02 09:36:38;;;;;;;38.25;21.55;;;2.30;91.10;;;;;;5038183;28;20045;-53
2022/12/02 09:39:05;;;;;;;35.83;21.95;;;2.40;91.20;;;;;;5053303;28;20037;-51
2022/12/02 09:41:37;;;;;;;37.38;21.20;;;2.40;90.90;;;;;;5035071;28;20029;-48
2022/12/02 09:44:05;;;;;;;34.45;20.05;;;2.50;91.10;;;;;;5050935;28;20016;-48
2022/12/02 09:46:31;;;;;;;38.65;21.80;;;2.40;90.70;;;;;;5037287;28;20045;-48
2022/12/02 09:48:59;;;;;;;40.60;23.08;;;2.40;90.20;;;;;;5033850;28;20026;-50
2022/12/02 09:51:26;;;;;;;37.05;22.90;;;2.40;90.30;;;;;;5042922;28;20033;-50
2022/12/02 09:53:53;;;;;;;35.97;21.92;;;2.40;90.50;;;;;;5052389;28;20029;-51
2022/12/02 09:56:21;;;;;;;39.85;21.02;;;2.40;90.50;;;;;;5062674;28;20032;-51
2022/12/02 09:58:54;;;;;;;37.70;20.80;;;2.40;90.30;;;;;;5043714;28;20447;-47
2022/12/02 10:01:25;;;;;;;37.30;21.35;;;2.50;90.10;;;;;;5056340;28;20037;-47
2022/12/02 10:03:52;;;;;;;36.42;21.60;;;2.50;90.10;;;;;;5035435;28;20025;-48
2022/12/02 10:06:26;;;;;;;38.95;21.50;;;2.60;89.90;;;;;;5064266;28;20070;-49
2022/12/02 10:08:58;;;;;;;42.40;21.23;;;2.70;89.80;;;;;;5055086;28;20033;-46
2022/12/02 10:11:29;;;;;;;41.00;22.55;;;2.60;89.50;;;;;;5061165;28;20027;-47
2022/12/02 10:13:56;;;;;;;33.90;19.88;;;2.70;89.30;;;;;;5048107;28;20029;-49
2022/12/02 10:16:26;;;;;;;43.78;22.20;;;2.80;89.50;;;;;;5052269;28;20024;-47
2022/12/02 10:18:58;;;;;;;39.80;22.10;;;2.90;89.20;;;;;;5052160;28;20013;-47
2022/12/02 10:21:26;;;;;;;38.20;21.98;;;2.90;89.40;;;;;;5036760;28;20478;-44
2022/12/02 10:24:13;;;;;;;37.10;21.75;;;3.00;89.10;;;;;;5033646;28;20115;-48
2022/12/02 10:26:50;;;;;;;38.60;22.02;;;3.00;89.20;;;;;;5047759;28;20031;-45
2022/12/02 10:29:29;;;;;;;35.60;20.05;;;3.10;89.20;;;;;;5046473;28;20346;-44
2022/12/02 10:32:18;;;;;;;36.05;20.00;;;3.20;89.00;;;;;;5053641;28;20120;-48
2022/12/02 10:34:59;;;;;;;35.83;20.85;;;3.20;88.70;;;;;;5011103;28;20037;-44
2022/12/02 10:37:27;;;;;;;32.92;19.55;;;3.20;88.50;;;;;;5052040;28;20060;-45
2022/12/02 10:40:30;;;;;;;34.63;21.35;;;3.10;87.40;;;;;;5051783;28;20094;-44
2022/12/02 10:43:11;;;;;;;39.63;22.00;;;3.20;88.20;;;;;;5045698;28;20080;-43
2022/12/02 10:45:37;;;;;;;36.05;20.67;;;3.20;88.00;;;;;;5056120;28;20662;-44
2022/12/02 10:48:15;;;;;;;37.63;20.77;;;3.30;87.90;;;;;;5052853;28;20029;-43
2022/12/02 10:50:43;;;;;;;32.88;20.48;;;3.20;87.40;;;;;;5054802;28;20036;-43
2022/12/02 10:53:13;;;;;;;33.08;20.42;;;3.20;87.20;;;;;;5054141;28;20032;-45
2022/12/02 10:55:41;;;;;;;33.60;20.92;;;3.20;87.30;;;;;;5043412;28;20045;-42
2022/12/02 10:58:14;;;;;;;33.88;19.65;;;3.10;87.30;;;;;;5050364;28;20025;-44
2022/12/02 11:00:40;;;;;;;31.75;17.60;;;3.10;87.00;;;;;;5049642;28;20040;-43
2022/12/02 11:03:07;;;;;;;36.08;20.63;;;3.00;86.50;;;;;;5033621;28;20029;-45
2022/12/02 11:05:36;;;;;;;35.60;20.42;;;2.90;86.50;;;;;;5050606;28;20122;-43
2022/12/02 11:08:15;;;;;;;28.90;17.80;;;2.90;86.60;;;;;;5049208;28;20028;-42
2022/12/02 11:10:46;;;;;;;37.58;19.20;;;2.80;86.50;;;;;;5044719;28;20130;-42
2022/12/02 11:13:36;;;;;;;34.38;20.17;;;2.90;87.10;;;;;;5045474;28;20658;-45
2022/12/02 11:16:30;;;;;;;35.15;19.80;;;2.70;86.30;;;;;;5029535;28;20053;-45
2022/12/02 11:19:23;;;;;;;33.83;18.88;;;2.90;86.50;;;;;;5041762;28;20059;-42
2022/12/02 11:21:50;;;;;;;33.28;20.15;;;2.90;86.70;;;;;;5050579;28;20028;-43
2022/12/02 11:24:25;;;;;;;33.22;21.00;;;3.00;86.40;;;;;;5037960;28;20120;-42
2022/12/02 11:27:02;;;;;;;30.80;19.92;;;3.00;86.40;;;;;;5032658;28;20041;-42
2022/12/02 11:29:42;;;;;;;34.83;20.48;;;3.00;86.00;;;;;;5016831;28;20044;-45
2022/12/02 11:32:27;;;;;;;35.35;19.92;;;3.10;86.40;;;;;;5054988;28;20121;-45
2022/12/02 11:35:15;;;;;;;37.13;20.83;;;3.10;86.00;;;;;;5037773;28;20025;-42
2022/12/02 11:37:44;;;;;;;35.35;21.42;;;3.10;86.00;;;;;;5037621;28;20742;-44
2022/12/02 11:40:16;;;;;;;39.92;21.92;;;3.10;86.20;;;;;;5045187;28;20033;-42
2022/12/02 11:42:44;;;;;;;40.08;22.98;;;3.20;86.00;;;;;;5041791;28;20057;-46
2022/12/02 11:45:16;;;;;;;37.17;20.83;;;3.20;86.30;;;;;;5051270;28;20618;-43
2022/12/02 11:48:14;;;;;;;37.22;22.30;;;3.30;86.20;;;;;;5055303;28;20025;-44
2022/12/02 11:50:43;;;;;;;33.70;20.63;;;3.20;85.80;;;;;;5036569;28;20086;-46
2022/12/02 11:53:27;;;;;;;35.85;21.20;;;3.20;85.70;;;;;;5056136;28;20103;-46
2022/12/02 11:55:54;;;;;;;36.47;22.70;;;3.10;85.80;;;;;;5042442;28;20084;-48
2022/12/02 11:58:29;;;;;;;38.28;22.15;;;3.10;86.30;;;;;;5052473;28;20363;-42
2022/12/02 12:01:19;;;;;;;39.10;24.00;;;3.10;86.30;;;;;;5049952;28;20029;-44
2022/12/02 12:03:49;;;;;;;37.88;22.38;;;3.20;86.30;;;;;;5054038;28;20386;-43
2022/12/02 12:06:28;;;;;;;38.95;23.20;;;3.20;86.20;;;;;;5038517;28;20018;-48
2022/12/02 12:08:56;;;;;;;40.42;23.98;;;3.20;86.30;;;;;;5050622;28;20453;-44
2022/12/02 12:11:34;;;;;;;39.70;24.15;;;3.30;86.50;;;;;;5051724;28;20442;-42
2022/12/02 12:14:11;;;;;;;42.55;23.52;;;3.20;86.20;;;;;;5055219;28;20115;-43
2022/12/02 12:16:39;;;;;;;37.67;22.02;;;3.20;86.30;;;;;;5054530;28;20033;-46
2022/12/02 12:19:14;;;;;;;37.88;22.52;;;3.20;86.40;;;;;;5045506;28;20021;-43
2022/12/02 12:21:59;;;;;;;38.97;22.90;;;3.20;86.20;;;;;;5053238;28;20024;-45
2022/12/02 12:24:27;;;;;;;36.25;21.98;;;3.20;86.50;;;;;;5054330;28;20032;-45
2022/12/02 12:27:09;;;;;;;36.40;22.15;;;3.20;86.10;;;;;;5048274;28;20037;-44
2022/12/02 12:29:38;;;;;;;38.88;22.85;;;3.20;86.50;;;;;;5051136;28;20055;-44
2022/12/02 12:32:09;;;;;;;43.67;25.10;;;3.20;86.20;;;;;;5053632;28;20040;-44
2022/12/02 12:34:36;;;;;;;38.60;22.60;;;3.10;85.70;;;;;;5051146;28;20036;-43
2022/12/02 12:37:03;;;;;;;42.20;24.55;;;3.20;86.10;;;;;;5044974;28;20061;-45
2022/12/02 12:39:29;;;;;;;36.47;22.23;;;3.20;86.60;;;;;;5052927;28;20091;-48
2022/12/02 12:41:55;;;;;;;44.85;23.63;;;3.20;86.30;;;;;;5046897;28;20028;-46
2022/12/02 12:44:24;;;;;;;38.65;23.83;;;3.20;86.40;;;;;;5054964;28;20029;-42
2022/12/02 12:46:51;;;;;;;38.20;23.65;;;3.30;86.50;;;;;;5050426;28;20039;-47
2022/12/02 12:49:21;;;;;;;45.05;25.90;;;3.30;86.60;;;;;;5053650;28;20033;-46
2022/12/02 12:51:48;;;;;;;40.17;24.83;;;3.30;86.80;;;;;;5037405;28;20037;-47
2022/12/02 12:54:13;;;;;;;46.55;24.30;;;3.30;86.70;;;;;;5044023;28;20033;-43
2022/12/02 12:56:40;;;;;;;42.60;25.42;;;3.30;86.50;;;;;;5035334;28;20505;-45